Time;durP1;ratioP1;P1;durP2;ratioP2;P2;SDS_P1;SDS_P2;PMS_P1;PMS_P2;Temp;Humidity;BMP_temperature;BMP_pressure;BME280_temperature;BME280_humidity;BME280_pressure;Samples;Min_cycle;Max_cycle;Signal;HPM_P1;HPM_P2
2024/03/31 00:01:08;;;;;;;12.10;2.22;;;;;;;;;;4978282;28;20038;-77
2024/03/31 00:03:39;;;;;;;11.18;2.00;;;;;;;;;;5012245;28;20433;-77
2024/03/31 00:06:05;;;;;;;13.68;2.67;;;;;;;;;;4979837;28;20060;-76
2024/03/31 00:08:31;;;;;;;7.50;2.42;;;;;;;;;;5012581;28;20042;-77
2024/03/31 00:11:03;;;;;;;11.45;2.13;;;;;;;;;;4995319;28;20466;-77
2024/03/31 00:13:29;;;;;;;10.80;1.98;;;;;;;;;;5010411;28;20038;-77
2024/03/31 00:15:55;;;;;;;18.92;2.17;;;;;;;;;;5010594;28;20037;-77
2024/03/31 00:18:20;;;;;;;13.93;2.25;;;;;;;;;;5009757;28;20053;-77
2024/03/31 00:20:52;;;;;;;7.90;1.90;;;;;;;;;;5012086;28;20064;-77
2024/03/31 00:23:17;;;;;;;10.80;2.85;;;;;;;;;;5011594;28;20063;-77
2024/03/31 00:25:43;;;;;;;11.43;2.42;;;;;;;;;;4995827;28;20046;-77
2024/03/31 00:28:09;;;;;;;9.90;1.67;;;;;;;;;;5013142;28;20041;-77
2024/03/31 00:30:35;;;;;;;5.90;1.65;;;;;;;;;;5012569;28;20046;-77
2024/03/31 00:33:00;;;;;;;8.55;2.05;;;;;;;;;;5012382;28;20038;-77
2024/03/31 00:35:26;;;;;;;8.27;2.28;;;;;;;;;;5011598;28;20073;-77
2024/03/31 00:37:52;;;;;;;8.65;2.15;;;;;;;;;;5011671;28;20125;-77
2024/03/31 00:40:19;;;;;;;7.13;1.77;;;;;;;;;;5013071;28;20068;-77
2024/03/31 00:42:44;;;;;;;7.80;1.83;;;;;;;;;;4997020;28;20494;-77
2024/03/31 00:45:10;;;;;;;5.95;1.80;;;;;;;;;;4996777;28;20053;-77
2024/03/31 00:47:36;;;;;;;5.38;2.10;;;;;;;;;;5011900;28;20092;-77
2024/03/31 00:50:02;;;;;;;6.38;1.52;;;;;;;;;;4995510;28;20034;-77
2024/03/31 00:52:28;;;;;;;4.75;1.75;;;;;;;;;;5011391;28;20046;-76
2024/03/31 00:54:53;;;;;;;6.15;1.88;;;;;;;;;;5011938;28;20038;-77
2024/03/31 00:57:19;;;;;;;3.58;1.63;;;;;;;;;;4996180;28;20091;-77
2024/03/31 00:59:45;;;;;;;7.25;1.88;;;;;;;;;;5013308;28;20124;-77
2024/03/31 01:02:11;;;;;;;9.05;1.90;;;;;;;;;;5013025;28;20473;-77
2024/03/31 01:04:37;;;;;;;3.60;1.58;;;;;;;;;;5013921;28;20037;-77
2024/03/31 01:07:03;;;;;;;6.25;2.00;;;;;;;;;;5013521;28;20038;-77
2024/03/31 01:09:29;;;;;;;5.28;1.67;;;;;;;;;;5012898;28;20041;-77
2024/03/31 01:11:55;;;;;;;3.15;1.55;;;;;;;;;;5012815;28;20069;-77
2024/03/31 01:14:21;;;;;;;3.25;1.50;;;;;;;;;;4980092;28;20476;-77
2024/03/31 01:16:47;;;;;;;8.15;1.98;;;;;;;;;;5012938;28;20507;-77
2024/03/31 01:19:13;;;;;;;4.32;1.50;;;;;;;;;;5012152;28;20046;-77
2024/03/31 01:21:39;;;;;;;3.03;1.40;;;;;;;;;;5012791;28;20137;-77
2024/03/31 01:24:06;;;;;;;3.83;1.50;;;;;;;;;;4995913;28;20056;-76
2024/03/31 01:26:32;;;;;;;5.25;1.80;;;;;;;;;;4996029;28;20050;-76
2024/03/31 01:28:58;;;;;;;4.57;1.50;;;;;;;;;;5012535;28;20096;-76
2024/03/31 01:31:24;;;;;;;3.28;1.50;;;;;;;;;;5012245;28;20049;-77
2024/03/31 01:33:50;;;;;;;2.17;1.27;;;;;;;;;;4996354;28;20393;-77
2024/03/31 01:36:16;;;;;;;4.85;1.75;;;;;;;;;;4996129;28;20431;-77
2024/03/31 01:38:42;;;;;;;3.95;1.40;;;;;;;;;;4996621;28;20112;-78
2024/03/31 01:41:07;;;;;;;4.82;1.40;;;;;;;;;;5012039;28;20095;-77
2024/03/31 01:43:33;;;;;;;4.47;1.30;;;;;;;;;;5012329;28;20153;-77
2024/03/31 01:45:59;;;;;;;2.60;1.50;;;;;;;;;;5013107;28;20042;-76
2024/03/31 01:48:25;;;;;;;2.00;1.33;;;;;;;;;;4995621;28;20517;-77
2024/03/31 01:50:50;;;;;;;3.55;1.40;;;;;;;;;;4995982;28;20050;-77
2024/03/31 01:53:16;;;;;;;2.60;1.50;;;;;;;;;;5011900;28;20389;-77
2024/03/31 01:55:42;;;;;;;2.83;1.30;;;;;;;;;;4995899;28;20038;-76
2024/03/31 01:58:08;;;;;;;3.78;1.40;;;;;;;;;;5011748;28;20056;-77
2024/03/31 02:00:34;;;;;;;2.67;1.38;;;;;;;;;;5011867;28;20049;-76
2024/03/31 02:02:59;;;;;;;2.83;1.30;;;;;;;;;;5012176;28;20046;-77
2024/03/31 02:05:25;;;;;;;1.63;1.20;;;;;;;;;;4978944;28;20084;-78
2024/03/31 02:07:51;;;;;;;3.42;1.25;;;;;;;;;;5012106;28;20042;-76
2024/03/31 02:10:17;;;;;;;5.40;1.50;;;;;;;;;;5011811;28;20434;-78
2024/03/31 02:12:43;;;;;;;2.15;1.20;;;;;;;;;;4995481;28;20041;-78
2024/03/31 02:15:08;;;;;;;3.17;1.30;;;;;;;;;;5011703;28;20045;-77
2024/03/31 02:17:34;;;;;;;3.55;1.40;;;;;;;;;;4995489;28;20042;-78
2024/03/31 02:20:00;;;;;;;2.08;0.90;;;;;;;;;;5012057;28;20038;-78
2024/03/31 02:22:26;;;;;;;2.95;1.30;;;;;;;;;;4995503;28;20050;-78
2024/03/31 02:24:51;;;;;;;2.85;1.15;;;;;;;;;;4995108;28;20060;-78
2024/03/31 02:27:17;;;;;;;3.25;1.17;;;;;;;;;;5011163;28;20046;-77
2024/03/31 02:29:43;;;;;;;3.83;1.17;;;;;;;;;;5011811;28;20045;-77
2024/03/31 02:32:09;;;;;;;2.75;1.20;;;;;;;;;;5011903;28;20068;-78
2024/03/31 02:34:35;;;;;;;1.38;0.90;;;;;;;;;;5011763;28;20128;-77
2024/03/31 02:37:00;;;;;;;1.80;0.90;;;;;;;;;;5011776;28;20077;-77
2024/03/31 02:39:27;;;;;;;3.58;0.93;;;;;;;;;;5011321;28;20061;-78
2024/03/31 02:41:52;;;;;;;3.90;1.10;;;;;;;;;;5011504;28;20049;-77
2024/03/31 02:44:18;;;;;;;1.67;0.98;;;;;;;;;;5011307;28;20362;-77
2024/03/31 02:46:45;;;;;;;1.55;1.02;;;;;;;;;;5011586;28;20517;-78
2024/03/31 02:49:11;;;;;;;3.08;1.08;;;;;;;;;;4995026;28;20045;-77
2024/03/31 02:51:37;;;;;;;1.83;1.00;;;;;;;;;;5011714;28;20543;-77
2024/03/31 02:54:03;;;;;;;2.83;1.20;;;;;;;;;;5011605;28;20049;-77
2024/03/31 02:56:28;;;;;;;5.20;1.50;;;;;;;;;;5011069;28;20038;-77
2024/03/31 02:58:54;;;;;;;6.85;1.52;;;;;;;;;;5011421;28;20149;-78
2024/03/31 03:01:20;;;;;;;7.55;1.23;;;;;;;;;;4994845;28;20435;-78
2024/03/31 03:03:46;;;;;;;5.55;1.17;;;;;;;;;;5011768;28;20443;-77
2024/03/31 03:06:12;;;;;;;3.38;0.85;;;;;;;;;;5011150;28;20053;-78
2024/03/31 03:08:41;;;;;;;3.75;1.20;;;;;;;;;;5011592;28;20040;-78
2024/03/31 03:11:06;;;;;;;;;;;;;;;;;;5011575;28;20038;-78
2024/03/31 03:13:32;;;;;;;4.63;0.88;;;;;;;;;;5027752;28;19921;-78
2024/03/31 03:16:05;;;;;;;3.47;0.98;;;;;;;;;;4995202;28;20038;-78
2024/03/31 03:18:30;;;;;;;3.22;1.10;;;;;;;;;;4994472;28;20060;-78
2024/03/31 03:20:57;;;;;;;3.95;1.90;;;;;;;;;;5011455;28;20038;-78
2024/03/31 03:23:23;;;;;;;2.97;0.80;;;;;;;;;;5010931;28;20048;-78
2024/03/31 03:25:59;;;;;;;4.07;0.90;;;;;;;;;;5011357;28;20046;-78
2024/03/31 03:28:25;;;;;;;3.80;1.10;;;;;;;;;;4978160;28;20038;-78
2024/03/31 03:30:51;;;;;;;5.30;1.25;;;;;;;;;;5011460;28;20041;-78
2024/03/31 03:33:17;;;;;;;1.88;0.73;;;;;;;;;;5011026;28;20046;-78
2024/03/31 03:35:43;;;;;;;4.80;1.02;;;;;;;;;;5011273;28;20126;-77
2024/03/31 03:38:09;;;;;;;1.88;0.70;;;;;;;;;;4997725;28;20480;-77
2024/03/31 03:40:35;;;;;;;2.90;0.80;;;;;;;;;;4998183;28;20041;-78
2024/03/31 03:43:01;;;;;;;3.58;0.80;;;;;;;;;;4998170;28;20046;-78
2024/03/31 03:45:27;;;;;;;3.55;1.00;;;;;;;;;;4997804;28;20045;-78
2024/03/31 03:47:52;;;;;;;2.65;0.85;;;;;;;;;;5014392;28;20535;-77
2024/03/31 03:50:18;;;;;;;4.22;0.90;;;;;;;;;;4997993;28;20073;-78
2024/03/31 03:52:44;;;;;;;1.88;0.80;;;;;;;;;;4981882;28;20088;-78
2024/03/31 03:55:10;;;;;;;2.53;0.80;;;;;;;;;;4997683;28;20045;-77
2024/03/31 03:57:35;;;;;;;3.80;0.80;;;;;;;;;;4981790;28;20053;-78
2024/03/31 04:00:03;;;;;;;3.03;0.80;;;;;;;;;;5014284;28;20125;-78
2024/03/31 04:02:29;;;;;;;2.80;1.00;;;;;;;;;;4981031;28;20088;-78
2024/03/31 04:04:55;;;;;;;3.45;0.93;;;;;;;;;;4998110;28;20046;-78
2024/03/31 04:07:20;;;;;;;1.58;0.93;;;;;;;;;;5013593;28;20046;-78
2024/03/31 04:09:46;;;;;;;2.65;1.10;;;;;;;;;;5014242;28;20034;-78
2024/03/31 04:12:13;;;;;;;5.20;0.80;;;;;;;;;;4997268;28;20046;-78
2024/03/31 04:14:39;;;;;;;2.80;0.80;;;;;;;;;;4997680;28;20042;-78
2024/03/31 04:17:05;;;;;;;3.63;0.93;;;;;;;;;;5013574;28;20037;-78
2024/03/31 04:19:31;;;;;;;1.02;0.82;;;;;;;;;;5013807;28;20042;-78
2024/03/31 04:21:56;;;;;;;4.57;1.05;;;;;;;;;;5014057;28;20038;-77
2024/03/31 04:24:22;;;;;;;2.88;0.90;;;;;;;;;;5013460;28;20133;-77
2024/03/31 04:26:48;;;;;;;2.08;0.85;;;;;;;;;;4997371;28;20046;-77
2024/03/31 04:29:14;;;;;;;1.85;0.77;;;;;;;;;;4996837;28;20045;-78
2024/03/31 04:31:57;;;;;;;2.83;0.98;;;;;;;;;;5013822;28;20041;-78
2024/03/31 04:34:27;;;;;;;1.40;1.05;;;;;;;;;;5013410;28;20393;-78
2024/03/31 04:36:55;;;;;;;2.08;0.90;;;;;;;;;;4997354;28;20072;-77
2024/03/31 04:39:21;;;;;;;1.27;1.00;;;;;;;;;;5013259;28;20064;-78
2024/03/31 04:41:47;;;;;;;1.60;0.70;;;;;;;;;;5013466;28;20070;-78
2024/03/31 04:44:13;;;;;;;1.80;0.90;;;;;;;;;;5012962;28;20054;-77
2024/03/31 04:46:39;;;;;;;1.95;1.05;;;;;;;;;;4996921;28;20038;-78
2024/03/31 04:49:05;;;;;;;3.90;1.00;;;;;;;;;;5012986;28;20477;-77
2024/03/31 04:51:30;;;;;;;1.90;1.05;;;;;;;;;;5013402;28;20042;-78
2024/03/31 04:53:56;;;;;;;2.38;0.90;;;;;;;;;;4997102;28;20088;-77
2024/03/31 04:56:22;;;;;;;2.03;0.95;;;;;;;;;;4996655;28;20042;-78
2024/03/31 04:58:48;;;;;;;1.73;0.90;;;;;;;;;;5013104;28;20046;-78
2024/03/31 05:01:13;;;;;;;2.30;0.73;;;;;;;;;;4996593;28;20046;-78
2024/03/31 05:03:39;;;;;;;3.03;0.82;;;;;;;;;;4996915;28;20034;-78
2024/03/31 05:06:05;;;;;;;2.05;0.80;;;;;;;;;;4996331;28;20046;-76
2024/03/31 05:08:31;;;;;;;1.15;1.05;;;;;;;;;;5013015;28;20088;-77
2024/03/31 05:10:58;;;;;;;2.03;0.98;;;;;;;;;;5012894;28;20042;-78
2024/03/31 05:13:28;;;;;;;1.73;0.98;;;;;;;;;;4996190;28;20046;-78
2024/03/31 05:16:04;;;;;;;1.75;1.20;;;;;;;;;;4980330;28;20538;-77
2024/03/31 05:18:30;;;;;;;2.72;1.35;;;;;;;;;;5029050;28;20046;-78
2024/03/31 05:21:02;;;;;;;1.20;0.80;;;;;;;;;;5013025;28;20037;-78
2024/03/31 05:23:28;;;;;;;2.83;0.85;;;;;;;;;;5012073;28;20068;-78
2024/03/31 05:25:57;;;;;;;2.47;1.00;;;;;;;;;;5012639;28;20034;-78
2024/03/31 05:28:24;;;;;;;2.22;0.90;;;;;;;;;;5012135;28;20109;-78
2024/03/31 05:30:50;;;;;;;1.85;0.90;;;;;;;;;;5012542;28;20034;-78
2024/03/31 05:33:16;;;;;;;1.50;0.90;;;;;;;;;;4996106;28;20107;-78
2024/03/31 05:35:43;;;;;;;0.90;0.80;;;;;;;;;;4980124;28;20423;-78
2024/03/31 05:38:10;;;;;;;1.50;0.70;;;;;;;;;;5012258;28;20129;-77
2024/03/31 05:40:40;;;;;;;1.52;0.80;;;;;;;;;;4996080;28;20049;-78
2024/03/31 05:43:06;;;;;;;2.75;1.00;;;;;;;;;;4995532;28;20046;-78
2024/03/31 05:45:37;;;;;;;2.28;1.00;;;;;;;;;;5012296;28;20040;-78
2024/03/31 05:48:12;;;;;;;1.77;0.85;;;;;;;;;;4995939;28;20060;-78
2024/03/31 05:50:38;;;;;;;3.03;0.80;;;;;;;;;;5011978;28;20095;-78
2024/03/31 05:53:05;;;;;;;0.80;0.80;;;;;;;;;;4995527;28;20044;-76
2024/03/31 05:55:31;;;;;;;1.67;0.82;;;;;;;;;;5012002;28;20042;-77
2024/03/31 05:57:58;;;;;;;0.70;0.60;;;;;;;;;;5012142;28;20045;-77
2024/03/31 06:00:25;;;;;;;0.73;0.60;;;;;;;;;;4978237;28;20042;-78
2024/03/31 06:02:51;;;;;;;2.45;0.80;;;;;;;;;;4995823;28;20044;-79
2024/03/31 06:05:17;;;;;;;1.10;0.70;;;;;;;;;;4995226;28;20042;-78
2024/03/31 06:07:49;;;;;;;1.85;0.70;;;;;;;;;;5012524;28;20046;-79
2024/03/31 06:10:16;;;;;;;1.70;0.70;;;;;;;;;;5013057;28;20064;-78
2024/03/31 06:12:41;;;;;;;2.53;0.65;;;;;;;;;;5011862;28;20045;-79
2024/03/31 06:15:07;;;;;;;0.90;0.70;;;;;;;;;;4979245;28;20037;-78
2024/03/31 06:17:34;;;;;;;1.10;0.60;;;;;;;;;;5011864;28;20045;-78
2024/03/31 06:20:00;;;;;;;3.88;0.80;;;;;;;;;;4995293;28;20472;-78
2024/03/31 06:22:26;;;;;;;2.25;0.80;;;;;;;;;;5011519;28;20064;-78
2024/03/31 06:24:51;;;;;;;1.15;0.50;;;;;;;;;;4995546;28;20046;-80
2024/03/31 06:27:17;;;;;;;2.10;0.60;;;;;;;;;;4994504;28;20069;-78
2024/03/31 06:29:47;;;;;;;1.92;0.63;;;;;;;;;;4995451;28;20048;-79
2024/03/31 06:32:13;;;;;;;4.10;0.65;;;;;;;;;;4995247;28;20068;-78
2024/03/31 06:34:39;;;;;;;0.90;0.70;;;;;;;;;;5011715;28;20459;-78
2024/03/31 06:37:05;;;;;;;2.03;0.77;;;;;;;;;;4994883;28;20034;-78
2024/03/31 06:39:30;;;;;;;1.63;0.70;;;;;;;;;;5005407;28;20072;-78
2024/03/31 06:41:56;;;;;;;1.55;0.82;;;;;;;;;;5009718;28;20041;-78
2024/03/31 06:44:22;;;;;;;1.55;0.70;;;;;;;;;;5009705;28;20129;-78
2024/03/31 06:46:47;;;;;;;1.88;1.00;;;;;;;;;;4993630;28;20075;-78
2024/03/31 06:49:13;;;;;;;1.35;0.65;;;;;;;;;;4973662;28;20097;-78
2024/03/31 06:51:39;;;;;;;0.82;0.73;;;;;;;;;;5009276;28;20038;-78
2024/03/31 06:54:05;;;;;;;2.92;1.13;;;;;;;;;;5009623;28;20045;-78
2024/03/31 06:56:30;;;;;;;1.48;1.10;;;;;;;;;;5009747;28;20042;-78
2024/03/31 06:58:56;;;;;;;0.77;0.73;;;;;;;;;;5010070;28;20081;-78
2024/03/31 07:01:22;;;;;;;2.75;1.02;;;;;;;;;;4993139;28;20587;-78
2024/03/31 07:03:48;;;;;;;2.03;1.00;;;;;;;;;;5010064;28;20072;-77
2024/03/31 07:06:13;;;;;;;2.08;1.00;;;;;;;;;;5009534;28;20107;-78
2024/03/31 07:08:39;;;;;;;2.72;0.77;;;;;;;;;;4993287;28;20401;-78
2024/03/31 07:11:05;;;;;;;2.55;1.00;;;;;;;;;;4995009;28;20073;-78
2024/03/31 07:13:30;;;;;;;1.88;1.20;;;;;;;;;;5013514;28;20088;-78
2024/03/31 07:15:56;;;;;;;1.15;1.00;;;;;;;;;;5019593;28;20030;-80
2024/03/31 07:18:22;;;;;;;1.90;0.95;;;;;;;;;;5012883;28;20053;-78
2024/03/31 07:20:48;;;;;;;2.25;1.00;;;;;;;;;;5011580;28;20515;-78
2024/03/31 07:23:13;;;;;;;1.00;0.90;;;;;;;;;;4996421;28;20491;-78
2024/03/31 07:25:40;;;;;;;1.52;1.10;;;;;;;;;;5011954;28;20042;-78
2024/03/31 07:28:05;;;;;;;1.30;1.05;;;;;;;;;;4980354;28;20115;-78
2024/03/31 07:30:31;;;;;;;1.30;1.00;;;;;;;;;;5013227;28;20472;-78
2024/03/31 07:32:57;;;;;;;1.02;0.93;;;;;;;;;;5012868;28;20041;-78
2024/03/31 07:35:23;;;;;;;1.33;1.00;;;;;;;;;;4996357;28;20052;-78
2024/03/31 07:37:49;;;;;;;1.95;1.42;;;;;;;;;;5013434;28;20042;-77
2024/03/31 07:40:15;;;;;;;2.92;1.10;;;;;;;;;;5012839;28;20046;-78
2024/03/31 07:42:41;;;;;;;1.85;0.90;;;;;;;;;;4996448;28;20048;-78
2024/03/31 07:45:07;;;;;;;2.13;0.93;;;;;;;;;;5011946;28;20396;-76
2024/03/31 07:47:33;;;;;;;2.03;1.33;;;;;;;;;;5010980;28;20060;-77
2024/03/31 07:49:59;;;;;;;2.05;1.30;;;;;;;;;;5011635;28;20056;-78
2024/03/31 07:52:26;;;;;;;1.25;0.98;;;;;;;;;;4992369;28;20050;-81
2024/03/31 07:54:51;;;;;;;2.50;1.42;;;;;;;;;;4976562;28;20039;-78
2024/03/31 07:57:17;;;;;;;2.15;1.50;;;;;;;;;;5011709;28;20042;-78
2024/03/31 07:59:45;;;;;;;1.60;1.17;;;;;;;;;;5012251;28;20052;-78
2024/03/31 08:02:11;;;;;;;3.85;1.77;;;;;;;;;;4995916;28;20046;-78
2024/03/31 08:04:37;;;;;;;4.78;1.60;;;;;;;;;;5012233;28;20033;-82
2024/03/31 08:07:02;;;;;;;4.07;1.60;;;;;;;;;;5022282;28;20046;-84
2024/03/31 08:09:28;;;;;;;3.47;1.75;;;;;;;;;;5012237;28;20064;-80
2024/03/31 08:11:54;;;;;;;2.13;1.58;;;;;;;;;;4996490;28;20496;-79
2024/03/31 08:14:20;;;;;;;3.47;1.70;;;;;;;;;;4995513;28;20069;-80
2024/03/31 08:16:45;;;;;;;4.93;1.70;;;;;;;;;;5012106;28;20456;-80
2024/03/31 08:19:12;;;;;;;5.28;2.38;;;;;;;;;;5010529;28;20045;-80
2024/03/31 08:21:41;;;;;;;2.50;1.70;;;;;;;;;;5009481;28;20034;-80
2024/03/31 08:24:06;;;;;;;3.38;1.70;;;;;;;;;;4981406;28;20046;-79
2024/03/31 08:26:33;;;;;;;2.92;2.13;;;;;;;;;;4992464;28;20045;-79
2024/03/31 08:28:59;;;;;;;4.72;2.00;;;;;;;;;;5009296;28;20038;-80
2024/03/31 08:31:24;;;;;;;3.08;1.52;;;;;;;;;;5011300;28;20072;-79
2024/03/31 08:33:50;;;;;;;3.28;1.70;;;;;;;;;;4995847;28;20052;-79
2024/03/31 08:36:16;;;;;;;3.72;1.52;;;;;;;;;;5011468;28;20049;-79
2024/03/31 08:38:41;;;;;;;1.50;1.35;;;;;;;;;;4976118;28;20080;-79
2024/03/31 08:41:09;;;;;;;1.92;1.42;;;;;;;;;;4989492;28;20042;-79
2024/03/31 08:43:39;;;;;;;1.98;1.50;;;;;;;;;;4995596;28;20046;-79
2024/03/31 08:46:06;;;;;;;2.55;1.20;;;;;;;;;;5011505;28;20044;-79
2024/03/31 08:48:36;;;;;;;3.72;1.60;;;;;;;;;;4997970;28;20129;-79
2024/03/31 08:51:03;;;;;;;1.23;1.13;;;;;;;;;;5009201;28;20034;-79
2024/03/31 08:53:30;;;;;;;1.70;1.40;;;;;;;;;;5011732;28;20042;-79
2024/03/31 08:55:56;;;;;;;1.85;1.50;;;;;;;;;;5011579;28;20042;-79
2024/03/31 08:58:21;;;;;;;4.47;1.70;;;;;;;;;;4994917;28;20073;-79
2024/03/31 09:00:50;;;;;;;4.55;1.80;;;;;;;;;;5011474;28;20046;-79
2024/03/31 09:03:15;;;;;;;2.45;1.75;;;;;;;;;;5011049;28;20488;-79
2024/03/31 09:05:41;;;;;;;1.98;1.60;;;;;;;;;;4978330;28;20077;-79
2024/03/31 09:08:08;;;;;;;3.85;1.80;;;;;;;;;;5010907;28;20129;-79
2024/03/31 09:10:35;;;;;;;1.98;1.77;;;;;;;;;;5019025;28;20046;-79
2024/03/31 09:13:06;;;;;;;2.05;1.80;;;;;;;;;;5011305;28;20038;-80
2024/03/31 09:15:33;;;;;;;2.30;1.70;;;;;;;;;;4992993;28;20046;-79
2024/03/31 09:17:59;;;;;;;4.70;1.63;;;;;;;;;;5009206;28;20038;-79
2024/03/31 09:20:25;;;;;;;1.67;1.50;;;;;;;;;;4993165;28;20050;-79
2024/03/31 09:22:51;;;;;;;3.38;1.70;;;;;;;;;;5009000;28;20180;-79
2024/03/31 09:25:17;;;;;;;2.22;1.65;;;;;;;;;;4991915;28;20046;-79
2024/03/31 09:27:43;;;;;;;4.22;1.67;;;;;;;;;;4994324;28;20086;-79
2024/03/31 09:30:09;;;;;;;2.55;1.40;;;;;;;;;;4994266;28;20041;-79
2024/03/31 09:32:37;;;;;;;2.83;1.60;;;;;;;;;;4994171;28;20384;-79
2024/03/31 09:35:03;;;;;;;5.07;2.20;;;;;;;;;;4994276;28;20546;-79
2024/03/31 09:37:29;;;;;;;3.97;2.50;;;;;;;;;;5006156;28;20296;-78
2024/03/31 09:39:55;;;;;;;4.25;2.65;;;;;;;;;;5008098;28;20417;-78
2024/03/31 09:42:21;;;;;;;5.68;2.92;;;;;;;;;;5006970;28;20408;-79
2024/03/31 09:44:47;;;;;;;5.10;2.70;;;;;;;;;;4991714;28;20129;-78
2024/03/31 09:47:25;;;;;;;6.35;1.52;;;;;;;;;;5010414;28;20046;-79
2024/03/31 09:50:15;;;;;;;5.40;1.23;;;;;;;;;;5026723;28;20042;-84
2024/03/31 09:52:45;;;;;;;4.22;0.85;;;;;;;;;;5009723;28;20042;-79
2024/03/31 09:55:18;;;;;;;5.25;0.65;;;;;;;;;;5009696;28;20048;-80
2024/03/31 09:57:47;;;;;;;2.08;0.50;;;;;;;;;;5008652;28;20056;-79
2024/03/31 10:00:16;;;;;;;3.95;0.45;;;;;;;;;;4993040;28;20048;-79
2024/03/31 10:02:51;;;;;;;3.58;0.50;;;;;;;;;;5009828;28;20045;-78
2024/03/31 10:05:24;;;;;;;2.25;0.50;;;;;;;;;;4992354;28;20056;-79
2024/03/31 10:07:52;;;;;;;1.50;0.60;;;;;;;;;;4994400;28;20042;-79
2024/03/31 10:10:19;;;;;;;2.40;0.50;;;;;;;;;;5010013;28;20044;-80
2024/03/31 10:12:47;;;;;;;2.17;0.57;;;;;;;;;;4992156;28;20046;-79
2024/03/31 10:15:14;;;;;;;1.80;0.50;;;;;;;;;;4991298;28;20354;-79
2024/03/31 10:17:41;;;;;;;1.85;0.70;;;;;;;;;;4983674;28;20148;-79
2024/03/31 10:20:08;;;;;;;2.30;0.50;;;;;;;;;;4997926;28;20046;-80
2024/03/31 10:22:35;;;;;;;2.78;0.90;;;;;;;;;;4993783;28;20050;-80
2024/03/31 10:25:02;;;;;;;4.00;0.60;;;;;;;;;;5006246;28;20375;-79
2024/03/31 10:27:29;;;;;;;2.28;0.50;;;;;;;;;;5009183;28;20041;-79
2024/03/31 10:29:56;;;;;;;2.70;0.57;;;;;;;;;;4990590;28;20050;-79
2024/03/31 10:32:21;;;;;;;2.70;0.60;;;;;;;;;;5005076;28;20091;-80
2024/03/31 10:34:48;;;;;;;1.63;0.30;;;;;;;;;;4994467;28;20128;-80
2024/03/31 10:37:15;;;;;;;2.92;0.47;;;;;;;;;;4993883;28;20038;-79
2024/03/31 10:39:44;;;;;;;3.45;0.30;;;;;;;;;;5005780;28;20045;-80
2024/03/31 10:42:10;;;;;;;2.53;0.40;;;;;;;;;;4997333;28;20065;-79
2024/03/31 10:44:38;;;;;;;2.33;0.55;;;;;;;;;;4993090;28;20061;-79
2024/03/31 10:47:05;;;;;;;1.40;0.30;;;;;;;;;;5013553;28;20472;-79
2024/03/31 10:49:41;;;;;;;2.60;0.40;;;;;;;;;;4980403;28;20048;-80
2024/03/31 10:52:13;;;;;;;5.60;0.60;;;;;;;;;;4990424;28;20795;-79
2024/03/31 10:54:40;;;;;;;3.03;0.63;;;;;;;;;;5011505;28;20044;-79
2024/03/31 10:57:11;;;;;;;4.65;0.50;;;;;;;;;;4995149;28;20041;-79
2024/03/31 10:59:38;;;;;;;4.50;0.40;;;;;;;;;;4996723;28;20042;-80
2024/03/31 11:02:11;;;;;;;5.60;0.77;;;;;;;;;;4978494;28;20042;-79
2024/03/31 11:04:37;;;;;;;3.33;0.50;;;;;;;;;;4995274;28;20530;-79
2024/03/31 11:07:07;;;;;;;4.20;0.68;;;;;;;;;;5011543;28;20128;-79
2024/03/31 11:09:33;;;;;;;6.75;0.60;;;;;;;;;;5012802;28;20392;-79
2024/03/31 11:11:59;;;;;;;3.22;0.52;;;;;;;;;;4996781;28;20042;-79
2024/03/31 11:14:26;;;;;;;3.25;0.40;;;;;;;;;;5012845;28;20045;-79
2024/03/31 11:16:52;;;;;;;2.40;0.40;;;;;;;;;;5013388;28;20042;-79
2024/03/31 11:19:21;;;;;;;5.20;0.50;;;;;;;;;;5014851;28;20083;-79
2024/03/31 11:21:47;;;;;;;3.53;0.40;;;;;;;;;;4998787;28;20045;-80
2024/03/31 11:24:13;;;;;;;1.95;0.30;;;;;;;;;;5014538;28;20064;-79
2024/03/31 11:26:40;;;;;;;2.70;0.30;;;;;;;;;;4998647;28;20481;-80
2024/03/31 11:29:08;;;;;;;3.45;0.30;;;;;;;;;;5014307;28;20045;-79
2024/03/31 11:31:36;;;;;;;2.88;0.38;;;;;;;;;;5014958;28;20075;-79
2024/03/31 11:34:02;;;;;;;4.10;0.50;;;;;;;;;;4998645;28;20037;-79
2024/03/31 11:36:27;;;;;;;3.45;0.60;;;;;;;;;;4998090;28;20034;-79
2024/03/31 11:38:53;;;;;;;2.00;0.40;;;;;;;;;;5014840;28;20125;-80
2024/03/31 11:41:19;;;;;;;3.08;0.45;;;;;;;;;;4997964;28;20485;-78
2024/03/31 11:43:46;;;;;;;4.32;0.70;;;;;;;;;;5014582;28;20033;-78
2024/03/31 11:46:11;;;;;;;2.50;0.20;;;;;;;;;;4997924;28;20068;-79
2024/03/31 11:48:37;;;;;;;1.88;0.40;;;;;;;;;;4998268;28;20042;-80
2024/03/31 11:51:03;;;;;;;4.38;0.40;;;;;;;;;;5014553;28;20054;-79
2024/03/31 11:53:29;;;;;;;1.33;0.50;;;;;;;;;;4997799;28;20061;-79
2024/03/31 11:55:54;;;;;;;2.15;0.50;;;;;;;;;;5014362;28;20064;-79
2024/03/31 11:58:21;;;;;;;3.75;0.55;;;;;;;;;;4996530;28;20038;-79
2024/03/31 12:00:53;;;;;;;5.22;0.70;;;;;;;;;;4997656;28;20508;-79
2024/03/31 12:03:18;;;;;;;1.63;0.50;;;;;;;;;;5013935;28;20117;-79
2024/03/31 12:05:49;;;;;;;1.75;0.50;;;;;;;;;;5014240;28;20056;-79
2024/03/31 12:08:16;;;;;;;2.80;0.40;;;;;;;;;;5013963;28;20068;-79
2024/03/31 12:10:48;;;;;;;1.63;0.28;;;;;;;;;;5014134;28;20550;-79
2024/03/31 12:13:14;;;;;;;3.45;0.35;;;;;;;;;;5013758;28;20056;-78
2024/03/31 12:15:41;;;;;;;2.33;0.30;;;;;;;;;;5014207;28;20041;-78
2024/03/31 12:18:07;;;;;;;1.27;0.25;;;;;;;;;;4997539;28;20042;-79
2024/03/31 12:20:34;;;;;;;2.42;0.40;;;;;;;;;;4997558;28;20464;-79
2024/03/31 12:22:59;;;;;;;2.35;0.40;;;;;;;;;;5013893;28;20046;-78
2024/03/31 12:25:26;;;;;;;2.10;0.38;;;;;;;;;;4997255;28;20064;-79
2024/03/31 12:27:52;;;;;;;3.45;0.28;;;;;;;;;;5013684;28;20095;-79
2024/03/31 12:30:18;;;;;;;3.22;0.35;;;;;;;;;;5013411;28;20421;-79
2024/03/31 12:32:44;;;;;;;3.75;0.30;;;;;;;;;;5013770;28;20048;-79
2024/03/31 12:35:10;;;;;;;1.05;0.22;;;;;;;;;;5013354;28;20400;-79
2024/03/31 12:37:39;;;;;;;3.45;0.45;;;;;;;;;;5013858;28;20058;-79
2024/03/31 12:40:09;;;;;;;2.97;0.40;;;;;;;;;;4981304;28;20040;-79
2024/03/31 12:42:38;;;;;;;3.42;0.32;;;;;;;;;;4997169;28;20042;-79
2024/03/31 12:45:05;;;;;;;1.75;0.63;;;;;;;;;;5013498;28;20060;-79
2024/03/31 12:47:32;;;;;;;2.95;0.55;;;;;;;;;;4996865;28;20045;-79
2024/03/31 12:49:57;;;;;;;1.70;0.30;;;;;;;;;;4997225;28;20469;-78
2024/03/31 12:52:23;;;;;;;2.80;0.40;;;;;;;;;;5013010;28;20056;-79
2024/03/31 12:54:48;;;;;;;2.55;0.40;;;;;;;;;;5013337;28;20044;-79
2024/03/31 12:57:14;;;;;;;4.53;0.50;;;;;;;;;;5012907;28;20052;-79
2024/03/31 12:59:40;;;;;;;2.63;0.40;;;;;;;;;;4996781;28;20401;-77
2024/03/31 13:02:10;;;;;;;4.63;0.60;;;;;;;;;;4996574;28;20060;-77
2024/03/31 13:04:39;;;;;;;4.38;0.93;;;;;;;;;;5013149;28;20041;-78
2024/03/31 13:07:08;;;;;;;2.42;0.60;;;;;;;;;;5012860;28;20038;-77
2024/03/31 13:09:35;;;;;;;4.63;0.30;;;;;;;;;;5012770;28;20041;-78
2024/03/31 13:12:02;;;;;;;2.15;0.75;;;;;;;;;;5013066;28;20063;-79
2024/03/31 13:14:28;;;;;;;2.60;0.40;;;;;;;;;;5012745;28;20034;-79
2024/03/31 13:16:53;;;;;;;2.05;0.30;;;;;;;;;;5013120;28;20037;-78
2024/03/31 13:19:19;;;;;;;3.33;0.60;;;;;;;;;;4996153;28;20405;-78
2024/03/31 13:21:44;;;;;;;1.77;0.30;;;;;;;;;;5012755;28;20038;-79
2024/03/31 13:24:10;;;;;;;1.17;0.40;;;;;;;;;;5012298;28;20073;-78
2024/03/31 13:26:37;;;;;;;0.90;0.60;;;;;;;;;;4980258;28;20129;-78
2024/03/31 13:29:02;;;;;;;4.22;0.57;;;;;;;;;;5012541;28;20048;-78
2024/03/31 13:31:28;;;;;;;2.05;0.20;;;;;;;;;;4995582;28;20065;-78
2024/03/31 13:33:54;;;;;;;2.70;0.40;;;;;;;;;;4996388;28;20046;-78
2024/03/31 13:36:20;;;;;;;6.93;0.32;;;;;;;;;;4995702;28;20038;-79
2024/03/31 13:38:46;;;;;;;3.15;0.22;;;;;;;;;;4996364;28;20480;-78
2024/03/31 13:41:12;;;;;;;0.98;0.32;;;;;;;;;;5012197;28;20076;-78
2024/03/31 13:43:38;;;;;;;2.50;0.30;;;;;;;;;;5012679;28;20477;-78
2024/03/31 13:46:03;;;;;;;1.20;0.17;;;;;;;;;;5012635;28;20038;-78
2024/03/31 13:48:29;;;;;;;0.68;0.20;;;;;;;;;;5012156;28;20046;-79
2024/03/31 13:50:54;;;;;;;1.98;0.20;;;;;;;;;;4996173;28;20121;-79
2024/03/31 13:53:20;;;;;;;2.13;0.30;;;;;;;;;;5011924;28;20053;-79
2024/03/31 13:55:46;;;;;;;1.42;0.20;;;;;;;;;;4996006;28;20125;-79
2024/03/31 13:58:11;;;;;;;2.58;0.32;;;;;;;;;;5011829;28;20481;-79
2024/03/31 14:00:37;;;;;;;2.40;0.50;;;;;;;;;;5012090;28;20384;-79
2024/03/31 14:03:03;;;;;;;1.17;0.30;;;;;;;;;;5012348;28;20046;-78
2024/03/31 14:05:30;;;;;;;1.45;0.25;;;;;;;;;;5011748;28;20442;-78
2024/03/31 14:07:57;;;;;;;1.77;0.30;;;;;;;;;;5011972;28;20045;-78
2024/03/31 14:10:22;;;;;;;3.47;0.60;;;;;;;;;;4995560;28;20042;-79
2024/03/31 14:12:48;;;;;;;1.48;0.40;;;;;;;;;;4995811;28;20382;-78
2024/03/31 14:15:14;;;;;;;1.08;0.35;;;;;;;;;;5011578;28;20037;-78
2024/03/31 14:17:39;;;;;;;4.43;0.73;;;;;;;;;;4994134;28;20053;-78
2024/03/31 14:20:09;;;;;;;1.88;0.50;;;;;;;;;;5010536;28;20038;-77
2024/03/31 14:22:35;;;;;;;0.98;0.55;;;;;;;;;;5007659;28;20045;-78
2024/03/31 14:25:01;;;;;;;2.10;0.75;;;;;;;;;;5011431;28;20046;-78
2024/03/31 14:27:27;;;;;;;1.10;0.47;;;;;;;;;;4994434;28;20097;-83
2024/03/31 14:29:53;;;;;;;1.70;0.88;;;;;;;;;;5011587;28;20374;-81
2024/03/31 14:32:18;;;;;;;2.47;0.50;;;;;;;;;;4994404;28;20480;-78
2024/03/31 14:34:44;;;;;;;2.15;0.85;;;;;;;;;;5011665;28;20037;-78
2024/03/31 14:37:09;;;;;;;1.38;0.50;;;;;;;;;;4994969;28;20107;-78
2024/03/31 14:39:35;;;;;;;1.63;0.30;;;;;;;;;;4995392;28;20112;-78